Terminal Aerodrome Forecast
Issued by NWS

Home | Current Version | Previous Version | Graphics & Text | Print | Product List | Glossary On
Versions: 1 2 3 4 5 6 7 8 9 10 11 12 13 14 15 16 17
970
FTUS43 KICT 171133
TAFRSL
TAF
KRSL 171133Z 1712/1812 VRB05KT P6SM SKC WS020/30035KT
     FM171500 29012KT P6SM SKC WS020/32040KT
     FM171600 30020G30KT P6SM SKC
     FM172300 01010KT P6SM SKC
     FM180100 VRB05KT P6SM SKC
     FM180500 16010KT P6SM FEW250
     FM180900 17015G20KT P6SM FEW250 WS020/20055KT=

USA.gov is the U.S. government's official web portal to all federal, state and local government web resources and services.